Time;durP1;ratioP1;P1;durP2;ratioP2;P2;SDS_P1;SDS_P2;PMS_P1;PMS_P2;Temp;Humidity;BMP_temperature;BMP_pressure;BME280_temperature;BME280_humidity;BME280_pressure;Samples;Min_cycle;Max_cycle;Signal;HPM_P1;HPM_P2
2022/05/08 00:01:58;;;;;;;0.80;0.50;;;13.70;99.90;;;;;;4972980;28;20161;-70
2022/05/08 00:04:24;;;;;;;0.80;0.60;;;13.70;99.90;;;;;;4973169;28;20162;-68
2022/05/08 00:06:49;;;;;;;0.80;0.60;;;13.70;99.90;;;;;;4973144;28;20172;-69
2022/05/08 00:09:15;;;;;;;0.80;0.50;;;13.70;99.90;;;;;;4972962;28;20193;-68
2022/05/08 00:11:41;;;;;;;0.80;0.50;;;13.70;99.90;;;;;;4972876;28;20161;-69
2022/05/08 00:14:06;;;;;;;0.80;0.50;;;13.60;99.90;;;;;;4973064;28;20471;-70
2022/05/08 00:16:32;;;;;;;3.47;0.60;;;13.60;99.90;;;;;;4972948;28;20181;-69
2022/05/08 00:18:58;;;;;;;0.80;0.50;;;13.60;99.90;;;;;;4972639;28;20198;-69
2022/05/08 00:21:23;;;;;;;0.80;0.60;;;13.60;99.90;;;;;;4972714;28;20201;-69
2022/05/08 00:23:49;;;;;;;0.80;0.50;;;13.50;99.90;;;;;;4989244;28;20189;-70
2022/05/08 00:26:14;;;;;;;0.90;0.60;;;13.50;99.90;;;;;;4976309;28;20181;-69
2022/05/08 00:28:40;;;;;;;0.80;0.50;;;13.50;99.90;;;;;;4972892;28;20667;-69
2022/05/08 00:31:10;;;;;;;0.80;0.50;;;13.50;99.90;;;;;;4972652;28;20679;-68
2022/05/08 00:33:37;;;;;;;0.80;0.60;;;13.40;99.90;;;;;;4971582;28;20181;-69
2022/05/08 00:36:03;;;;;;;0.80;0.50;;;13.40;99.90;;;;;;4972861;28;20424;-68
2022/05/08 00:38:29;;;;;;;0.80;0.50;;;13.40;99.90;;;;;;4972560;28;20440;-69
2022/05/08 00:40:54;;;;;;;0.80;0.50;;;13.40;99.90;;;;;;4974534;28;20404;-70
2022/05/08 00:43:31;;;;;;;1.10;1.00;;;13.40;99.90;;;;;;4989518;28;20177;-70
2022/05/08 00:45:57;;;;;;;0.90;0.60;;;13.40;99.90;;;;;;5005534;28;20182;-70
2022/05/08 00:48:22;;;;;;;0.80;0.63;;;13.30;99.90;;;;;;4988771;28;20463;-70
2022/05/08 00:50:50;;;;;;;0.80;0.50;;;13.30;99.90;;;;;;4981246;28;20177;-69
2022/05/08 00:53:15;;;;;;;0.80;0.50;;;13.30;99.90;;;;;;4972700;28;20264;-69
2022/05/08 00:55:41;;;;;;;0.80;0.50;;;13.30;99.90;;;;;;4972645;28;20517;-69
2022/05/08 00:58:07;;;;;;;0.80;0.70;;;13.30;99.90;;;;;;4987814;28;20224;-69
2022/05/08 01:00:33;;;;;;;0.80;0.50;;;13.30;99.90;;;;;;4972661;28;20197;-68
2022/05/08 01:02:59;;;;;;;0.80;0.67;;;13.30;99.90;;;;;;4973078;28;20500;-69
2022/05/08 01:05:25;;;;;;;0.80;0.50;;;13.30;99.90;;;;;;4976016;28;20623;-69
2022/05/08 01:07:50;;;;;;;0.80;0.50;;;13.20;99.90;;;;;;4975900;28;20428;-69
2022/05/08 01:10:16;;;;;;;0.80;0.50;;;13.20;99.90;;;;;;4974799;28;20280;-70
2022/05/08 01:12:45;;;;;;;0.80;0.50;;;13.20;99.90;;;;;;4974545;28;20185;-70
2022/05/08 01:15:14;;;;;;;0.80;0.50;;;13.20;99.90;;;;;;4975910;28;20922;-69
2022/05/08 01:17:40;;;;;;;0.80;0.60;;;13.20;99.90;;;;;;4975818;28;20433;-70
2022/05/08 01:20:06;;;;;;;0.90;0.77;;;13.20;99.90;;;;;;4975784;28;20508;-70
2022/05/08 01:22:32;;;;;;;0.80;0.50;;;13.20;99.90;;;;;;4975295;28;20173;-70
2022/05/08 01:25:01;;;;;;;0.80;0.50;;;13.20;99.90;;;;;;4975733;28;20891;-70
2022/05/08 01:27:27;;;;;;;0.80;0.50;;;13.20;99.90;;;;;;4975766;28;20603;-69
2022/05/08 01:29:53;;;;;;;0.80;0.60;;;13.20;99.90;;;;;;4975643;28;20496;-69
2022/05/08 01:32:19;;;;;;;0.80;0.50;;;13.20;99.90;;;;;;4975278;28;20492;-71
2022/05/08 01:34:45;;;;;;;1.47;0.60;;;13.20;99.90;;;;;;4980622;28;20237;-71
2022/05/08 01:37:10;;;;;;;0.80;0.50;;;13.30;99.90;;;;;;4992297;28;20740;-70
2022/05/08 01:39:36;;;;;;;0.80;0.50;;;13.40;99.90;;;;;;4985500;28;20240;-70
2022/05/08 01:42:04;;;;;;;0.80;0.50;;;13.50;99.90;;;;;;4975219;28;20181;-70
2022/05/08 01:44:30;;;;;;;0.80;0.50;;;13.60;99.90;;;;;;4975290;28;20647;-70
2022/05/08 01:49:40;;;;;;;1.33;1.10;;;13.80;99.90;;;;;;4992997;28;20435;-69
2022/05/08 01:52:07;;;;;;;0.80;0.50;;;13.90;99.90;;;;;;4991001;28;20960;-69
2022/05/08 01:54:32;;;;;;;0.70;0.50;;;14.00;99.90;;;;;;4990504;28;20437;-70
2022/05/08 01:56:58;;;;;;;0.80;0.50;;;14.10;99.90;;;;;;4991484;28;20505;-70
2022/05/08 01:59:24;;;;;;;0.80;0.50;;;14.20;99.90;;;;;;4984415;28;20197;-69
2022/05/08 02:01:50;;;;;;;0.80;0.50;;;14.30;99.90;;;;;;4973576;28;20216;-70
2022/05/08 02:04:15;;;;;;;0.80;0.50;;;14.30;99.90;;;;;;4975001;28;20170;-68
2022/05/08 02:06:42;;;;;;;1.13;0.80;;;14.40;99.90;;;;;;4974941;28;20166;-69
2022/05/08 02:09:07;;;;;;;0.80;0.60;;;14.50;99.90;;;;;;4973752;28;20346;-68
2022/05/08 02:11:33;;;;;;;0.80;0.50;;;14.60;99.90;;;;;;4974646;28;20405;-69
2022/05/08 02:13:59;;;;;;;0.80;0.50;;;14.60;99.90;;;;;;4973642;28;20206;-71
2022/05/08 02:16:25;;;;;;;0.87;0.60;;;14.70;99.90;;;;;;4974818;28;20173;-70
2022/05/08 02:18:50;;;;;;;0.80;0.50;;;14.80;99.90;;;;;;4974610;28;20193;-70
2022/05/08 02:21:17;;;;;;;0.80;0.50;;;14.80;99.90;;;;;;4974347;28;20853;-70
2022/05/08 02:23:43;;;;;;;0.80;0.60;;;14.90;99.90;;;;;;4985820;28;20420;-70
2022/05/08 02:26:08;;;;;;;0.90;0.60;;;14.90;99.90;;;;;;4992308;28;20413;-69
2022/05/08 02:28:34;;;;;;;0.80;0.60;;;15.00;99.90;;;;;;4989557;28;20204;-70
2022/05/08 02:31:00;;;;;;;1.10;0.70;;;15.00;99.90;;;;;;4973323;28;20181;-70
2022/05/08 02:33:25;;;;;;;0.80;0.57;;;15.00;99.90;;;;;;4973130;28;20555;-69
2022/05/08 02:35:51;;;;;;;1.00;0.90;;;15.10;99.90;;;;;;4974364;28;20413;-70
2022/05/08 02:38:16;;;;;;;0.80;0.50;;;15.10;99.90;;;;;;4974286;28;20194;-69
2022/05/08 02:40:42;;;;;;;1.10;0.90;;;15.10;99.90;;;;;;4973247;28;20596;-70
2022/05/08 02:43:07;;;;;;;0.90;0.73;;;15.10;99.90;;;;;;4974095;28;20201;-70
2022/05/08 02:45:33;;;;;;;0.90;0.60;;;15.20;99.90;;;;;;4973055;28;20662;-69
2022/05/08 02:47:58;;;;;;;0.80;0.60;;;15.20;99.90;;;;;;4974102;28;20205;-69
2022/05/08 02:50:25;;;;;;;0.90;0.80;;;15.20;99.90;;;;;;4972772;28;20252;-69
2022/05/08 02:52:51;;;;;;;1.03;0.73;;;15.20;99.90;;;;;;4973874;28;20166;-69
2022/05/08 03:00:47;;;;;;;1.27;1.10;;;15.10;99.90;;;;;;4991904;28;20404;-70
2022/05/08 03:03:14;;;;;;;1.00;0.77;;;15.10;99.90;;;;;;4990344;28;20447;-69
2022/05/08 03:05:47;;;;;;;1.10;1.00;;;15.10;99.90;;;;;;4984082;28;20414;-69
2022/05/08 03:08:15;;;;;;;0.80;0.70;;;15.10;99.90;;;;;;4973709;28;20435;-69
2022/05/08 03:13:29;;;;;;;1.00;0.63;;;15.10;99.90;;;;;;4974036;28;20823;-72
2022/05/08 03:15:55;;;;;;;0.80;0.50;;;15.10;99.90;;;;;;4973728;28;20428;-72
2022/05/08 03:18:21;;;;;;;0.80;0.60;;;15.10;99.90;;;;;;4973461;28;20457;-72
2022/05/08 03:20:47;;;;;;;1.00;0.87;;;15.10;99.90;;;;;;4973847;28;20178;-73
2022/05/08 03:23:14;;;;;;;1.10;0.80;;;15.00;99.90;;;;;;4973604;28;20822;-71
2022/05/08 03:25:39;;;;;;;0.90;0.80;;;15.00;99.90;;;;;;4973876;28;20409;-73
2022/05/08 03:28:05;;;;;;;0.90;0.60;;;15.00;99.90;;;;;;4973433;28;20432;-69
2022/05/08 03:30:31;;;;;;;0.83;0.70;;;15.00;99.90;;;;;;4973516;28;20602;-69
2022/05/08 03:32:57;;;;;;;0.80;0.50;;;14.90;99.90;;;;;;4973091;28;20264;-69
2022/05/08 03:35:22;;;;;;;1.37;0.80;;;14.80;99.90;;;;;;4973454;28;20169;-70
2022/05/08 03:37:48;;;;;;;0.80;0.50;;;14.80;99.90;;;;;;4973315;28;20429;-70
2022/05/08 03:40:13;;;;;;;0.80;0.60;;;14.80;99.90;;;;;;4973251;28;20201;-69
2022/05/08 03:42:39;;;;;;;0.80;0.60;;;14.70;99.90;;;;;;4973198;28;20176;-68
2022/05/08 03:45:05;;;;;;;0.80;0.50;;;14.70;99.90;;;;;;4973352;28;20541;-69
2022/05/08 03:47:30;;;;;;;1.47;0.63;;;14.70;99.90;;;;;;4973253;28;20207;-68
2022/05/08 03:49:56;;;;;;;0.93;0.60;;;14.70;99.90;;;;;;4973253;28;20512;-69
2022/05/08 03:52:21;;;;;;;0.80;0.50;;;14.60;99.90;;;;;;4973058;28;20683;-69
2022/05/08 03:54:47;;;;;;;0.80;0.50;;;14.60;99.90;;;;;;4973073;28;20647;-69
2022/05/08 03:57:12;;;;;;;0.80;0.50;;;14.60;99.90;;;;;;4971988;28;20244;-70
2022/05/08 03:59:38;;;;;;;0.80;0.63;;;14.50;99.90;;;;;;4972990;28;20248;-69
2022/05/08 04:02:03;;;;;;;0.80;0.50;;;14.50;99.90;;;;;;4972850;28;20174;-69
2022/05/08 04:04:29;;;;;;;0.80;0.50;;;14.50;99.90;;;;;;4973124;28;20174;-71
2022/05/08 04:06:54;;;;;;;1.47;0.60;;;14.50;99.90;;;;;;4973168;28;20187;-68
2022/05/08 04:09:20;;;;;;;1.00;0.90;;;14.40;99.90;;;;;;4971771;28;20219;-69
2022/05/08 04:11:45;;;;;;;0.80;0.60;;;14.40;99.90;;;;;;4972867;28;20657;-69
2022/05/08 04:14:12;;;;;;;0.80;0.50;;;14.40;99.90;;;;;;4973036;28;20181;-68
2022/05/08 04:16:38;;;;;;;0.80;0.60;;;14.30;99.90;;;;;;4972984;28;20261;-69
2022/05/08 04:19:03;;;;;;;1.27;0.70;;;14.30;99.90;;;;;;4972788;28;20531;-69
2022/05/08 04:21:29;;;;;;;0.77;0.50;;;14.30;99.90;;;;;;4972818;28;20219;-69
2022/05/08 04:26:38;;;;;;;1.00;0.70;;;14.20;99.90;;;;;;4972990;28;20228;-69
2022/05/08 04:29:04;;;;;;;0.80;0.50;;;14.20;99.90;;;;;;4971686;28;21002;-70
2022/05/08 04:31:30;;;;;;;0.80;0.50;;;14.20;99.90;;;;;;4975020;28;20534;-70
2022/05/08 04:33:55;;;;;;;0.80;0.60;;;14.20;99.90;;;;;;4975956;28;20433;-69
2022/05/08 04:36:21;;;;;;;0.77;0.50;;;14.10;99.90;;;;;;4977233;28;20169;-70
2022/05/08 04:38:47;;;;;;;0.80;0.60;;;14.20;99.90;;;;;;4979473;28;20208;-69
2022/05/08 04:41:12;;;;;;;0.80;0.50;;;14.20;99.90;;;;;;4979598;28;20170;-70
2022/05/08 04:43:38;;;;;;;0.80;0.70;;;14.20;99.90;;;;;;4981046;28;20635;-70
2022/05/08 04:46:04;;;;;;;0.80;0.50;;;14.20;99.90;;;;;;4980893;28;20220;-70
2022/05/08 04:48:29;;;;;;;0.80;0.50;;;14.20;99.90;;;;;;4980645;28;20221;-70
2022/05/08 04:50:55;;;;;;;0.80;0.50;;;14.20;99.90;;;;;;4980588;28;20549;-70
2022/05/08 04:53:20;;;;;;;1.40;0.60;;;14.20;99.90;;;;;;4980740;28;20173;-70
2022/05/08 04:55:46;;;;;;;0.73;0.50;;;14.30;99.90;;;;;;4980214;28;20566;-69
2022/05/08 04:58:11;;;;;;;0.80;0.50;;;14.30;99.90;;;;;;4976196;28;20279;-69
2022/05/08 05:00:37;;;;;;;0.80;0.50;;;14.30;99.90;;;;;;4975989;28;20238;-69
2022/05/08 05:03:03;;;;;;;1.13;0.77;;;14.30;99.90;;;;;;4975859;28;20174;-69
2022/05/08 05:05:29;;;;;;;0.80;0.50;;;14.40;99.90;;;;;;4976015;28;20778;-69
2022/05/08 05:07:55;;;;;;;0.80;0.50;;;14.40;99.90;;;;;;4975989;28;20432;-69
2022/05/08 05:10:21;;;;;;;0.70;0.50;;;14.40;99.90;;;;;;4977186;28;20491;-70
2022/05/08 05:12:47;;;;;;;0.70;0.50;;;14.50;99.90;;;;;;4977720;28;20252;-69
2022/05/08 05:15:12;;;;;;;1.00;0.90;;;14.50;99.90;;;;;;4974638;28;20525;-69
2022/05/08 05:17:38;;;;;;;1.10;0.93;;;14.60;99.90;;;;;;4975619;28;20176;-70
2022/05/08 05:20:05;;;;;;;1.00;0.90;;;14.60;99.90;;;;;;4974459;28;20667;-69
2022/05/08 05:22:30;;;;;;;0.90;0.60;;;14.60;99.90;;;;;;4974275;28;20205;-69
2022/05/08 05:24:57;;;;;;;0.80;0.60;;;14.70;99.90;;;;;;4975860;28;20453;-70
2022/05/08 05:27:23;;;;;;;1.67;0.90;;;14.70;99.90;;;;;;4979387;28;20579;-70
2022/05/08 05:29:48;;;;;;;0.77;0.57;;;14.80;99.90;;;;;;4975618;28;20405;-69
2022/05/08 05:32:14;;;;;;;1.53;0.80;;;14.80;99.90;;;;;;4975390;28;20451;-69
2022/05/08 05:34:40;;;;;;;2.40;1.33;;;14.90;99.90;;;;;;4975490;28;20232;-69
2022/05/08 05:37:06;;;;;;;1.10;0.70;;;14.90;99.90;;;;;;4975592;28;20173;-69
2022/05/08 05:39:31;;;;;;;0.80;0.60;;;15.00;99.90;;;;;;4975324;28;20220;-69
2022/05/08 05:41:57;;;;;;;1.00;0.90;;;15.00;99.90;;;;;;4974023;28;20838;-68
2022/05/08 05:44:23;;;;;;;2.00;1.13;;;15.10;99.90;;;;;;4975443;28;20677;-69
2022/05/08 05:49:32;;;;;;;0.80;0.60;;;15.20;99.90;;;;;;4975401;28;20196;-69
2022/05/08 05:51:58;;;;;;;0.80;0.50;;;15.20;99.90;;;;;;4975098;28;20774;-69
2022/05/08 05:54:24;;;;;;;0.80;0.80;;;15.30;99.90;;;;;;4974949;28;20196;-70
2022/05/08 05:56:50;;;;;;;1.33;0.70;;;15.30;99.90;;;;;;4978768;28;20191;-70
2022/05/08 05:59:15;;;;;;;1.30;0.83;;;15.40;99.90;;;;;;4975244;28;20460;-69
2022/05/08 06:01:42;;;;;;;0.93;0.83;;;15.40;99.90;;;;;;4974838;28;20957;-69
2022/05/08 06:04:07;;;;;;;1.10;1.00;;;15.50;99.90;;;;;;4975113;28;20165;-68
2022/05/08 06:06:33;;;;;;;1.67;0.80;;;15.50;99.90;;;;;;4975051;28;20443;-68
2022/05/08 06:08:59;;;;;;;0.80;0.50;;;15.50;99.90;;;;;;4974875;28;20225;-69
2022/05/08 06:11:24;;;;;;;1.30;1.20;;;15.50;99.90;;;;;;4974668;28;20178;-69
2022/05/08 06:13:50;;;;;;;1.20;0.70;;;15.60;99.90;;;;;;4974719;28;20530;-69
2022/05/08 06:16:15;;;;;;;1.17;0.80;;;15.60;99.90;;;;;;4974817;28;20192;-69
2022/05/08 06:18:41;;;;;;;0.80;0.50;;;15.60;99.90;;;;;;4974872;28;20591;-69
2022/05/08 06:21:06;;;;;;;0.90;0.60;;;15.70;99.90;;;;;;4974723;28;20177;-69
2022/05/08 06:23:35;;;;;;;0.80;0.63;;;15.80;99.90;;;;;;4974492;28;20699;-69
2022/05/08 06:26:02;;;;;;;1.13;0.77;;;15.90;99.90;;;;;;4974474;28;20220;-69
2022/05/08 06:28:28;;;;;;;1.03;0.70;;;16.00;99.90;;;;;;4974489;28;20460;-70
2022/05/08 06:30:54;;;;;;;1.00;0.70;;;16.30;99.90;;;;;;4974521;28;20448;-70
2022/05/08 06:33:19;;;;;;;0.90;0.70;;;16.80;99.90;;;;;;4980473;28;20165;-70
2022/05/08 06:35:45;;;;;;;0.90;0.70;;;17.50;99.90;;;;;;4974435;28;20538;-69
2022/05/08 06:38:10;;;;;;;0.80;0.50;;;18.40;99.90;;;;;;4974448;28;20205;-70
2022/05/08 06:40:37;;;;;;;1.07;0.73;;;19.20;99.90;;;;;;4974233;28;20208;-70
2022/05/08 06:43:02;;;;;;;0.97;0.60;;;20.00;99.90;;;;;;4974122;28;20206;-70
2022/05/08 06:45:28;;;;;;;1.20;1.10;;;20.80;99.90;;;;;;4974374;28;20907;-69
2022/05/08 06:47:53;;;;;;;1.57;1.20;;;21.50;99.90;;;;;;4974228;28;20197;-69
2022/05/08 06:50:19;;;;;;;0.90;0.70;;;22.30;99.90;;;;;;4974164;28;20169;-70
2022/05/08 06:52:45;;;;;;;1.43;1.10;;;23.10;99.90;;;;;;4973835;28;20170;-69
2022/05/08 06:55:11;;;;;;;0.80;0.60;;;23.90;99.90;;;;;;4981178;28;20185;-70
2022/05/08 06:57:36;;;;;;;1.40;0.83;;;24.70;99.90;;;;;;4993226;28;20886;-69
2022/05/08 07:02:48;;;;;;;1.10;0.70;;;25.90;99.90;;;;;;4993098;28;20239;-69
2022/05/08 07:05:13;;;;;;;1.00;0.70;;;26.80;99.90;;;;;;4993259;28;20886;-69
2022/05/08 07:07:39;;;;;;;1.20;1.10;;;27.50;99.90;;;;;;4993228;28;20577;-69
2022/05/08 07:10:04;;;;;;;1.40;1.23;;;28.20;99.90;;;;;;4993113;28;20173;-69
2022/05/08 07:12:30;;;;;;;1.20;1.10;;;28.70;99.90;;;;;;4992888;28;20529;-69
2022/05/08 07:14:56;;;;;;;1.30;1.20;;;29.40;99.90;;;;;;4993188;28;20667;-69
2022/05/08 07:17:23;;;;;;;1.00;0.80;;;30.20;99.90;;;;;;4993409;28;20709;-70
2022/05/08 07:19:49;;;;;;;1.10;0.83;;;30.90;99.90;;;;;;4991767;28;20189;-70
2022/05/08 07:22:17;;;;;;;0.90;0.70;;;31.70;99.90;;;;;;4992815;28;20396;-70
2022/05/08 07:24:43;;;;;;;1.33;0.70;;;32.50;99.80;;;;;;5001893;28;20173;-70
2022/05/08 07:27:11;;;;;;;1.00;0.87;;;33.10;95.30;;;;;;5008992;28;20419;-71
2022/05/08 07:29:43;;;;;;;1.00;0.70;;;33.80;91.30;;;;;;5006381;28;20829;-70
2022/05/08 07:32:09;;;;;;;1.43;0.80;;;34.50;86.40;;;;;;4997857;28;20412;-70
2022/05/08 07:37:19;;;;;;;1.73;1.37;;;35.70;71.40;;;;;;4992836;28;20407;-70
2022/05/08 07:39:44;;;;;;;1.47;1.17;;;36.30;65.80;;;;;;4992765;28;20825;-70
2022/05/08 07:42:10;;;;;;;1.30;1.20;;;36.90;62.50;;;;;;4991303;28;20165;-70
2022/05/08 07:44:35;;;;;;;1.00;0.90;;;37.50;59.10;;;;;;4992751;28;20192;-70
2022/05/08 07:47:01;;;;;;;1.40;1.10;;;37.90;56.80;;;;;;4992682;28;20172;-69
2022/05/08 07:49:27;;;;;;;1.33;1.13;;;38.30;54.00;;;;;;4992512;28;20192;-69
2022/05/08 07:51:53;;;;;;;1.33;1.07;;;38.60;52.30;;;;;;4991141;28;20172;-69
2022/05/08 07:54:18;;;;;;;1.20;1.10;;;39.00;50.50;;;;;;4992534;28;20528;-69
2022/05/08 07:56:44;;;;;;;0.90;0.80;;;39.50;48.70;;;;;;4992553;28;20539;-68
2022/05/08 07:59:10;;;;;;;1.47;0.70;;;39.90;47.10;;;;;;4992466;28;20563;-68
2022/05/08 08:01:35;;;;;;;1.70;1.10;;;39.70;45.50;;;;;;4992289;28;20408;-68
2022/05/08 08:04:02;;;;;;;2.30;1.20;;;38.90;44.20;;;;;;4992523;28;20169;-68
2022/05/08 08:06:28;;;;;;;1.23;0.90;;;37.90;43.60;;;;;;4992525;28;20612;-67
2022/05/08 08:08:54;;;;;;;1.03;0.93;;;37.10;43.40;;;;;;4992458;28;20438;-68
2022/05/08 08:11:20;;;;;;;0.90;0.80;;;36.40;43.30;;;;;;4993529;28;20481;-69
2022/05/08 08:13:46;;;;;;;1.00;0.80;;;35.90;43.20;;;;;;4996341;28;20495;-68
2022/05/08 08:16:12;;;;;;;1.00;0.80;;;35.60;43.20;;;;;;4996420;28;20506;-68
2022/05/08 08:18:41;;;;;;;1.43;0.93;;;35.30;43.20;;;;;;4996200;28;20522;-69
2022/05/08 08:21:06;;;;;;;1.00;0.70;;;35.10;43.30;;;;;;4996329;28;20260;-68
2022/05/08 08:23:32;;;;;;;0.90;0.70;;;34.80;43.30;;;;;;4996009;28;20483;-68
2022/05/08 08:25:58;;;;;;;1.20;0.80;;;34.70;43.40;;;;;;5003568;28;20194;-68
2022/05/08 08:28:23;;;;;;;1.00;0.87;;;34.40;43.30;;;;;;5012933;28;20247;-69
2022/05/08 08:30:49;;;;;;;1.27;1.10;;;33.90;43.10;;;;;;4996565;28;20176;-68
2022/05/08 08:33:14;;;;;;;1.10;0.80;;;33.40;43.00;;;;;;4995779;28;20180;-68
2022/05/08 08:35:40;;;;;;;0.90;0.70;;;32.90;43.20;;;;;;4996047;28;20184;-68
2022/05/08 08:38:06;;;;;;;1.37;0.90;;;32.40;43.20;;;;;;4995844;28;20196;-67
2022/05/08 08:40:38;;;;;;;0.90;0.70;;;31.90;43.30;;;;;;4995893;28;20236;-69
2022/05/08 08:43:03;;;;;;;1.20;0.80;;;31.50;43.60;;;;;;4995716;28;20408;-67
2022/05/08 08:48:44;;;;;;;1.10;0.70;;;31.20;44.10;;;;;;4995803;28;20299;-68
2022/05/08 08:51:12;;;;;;;2.60;0.90;;;31.20;45.00;;;;;;4995120;28;20420;-67
2022/05/08 08:53:37;;;;;;;1.43;0.90;;;31.30;44.40;;;;;;4995526;28;20412;-67
2022/05/08 08:56:04;;;;;;;2.80;1.10;;;31.30;44.30;;;;;;4995909;28;20412;-68
2022/05/08 08:58:29;;;;;;;1.83;0.70;;;31.50;44.50;;;;;;4995556;28;20203;-67
2022/05/08 09:00:55;;;;;;;0.90;0.67;;;31.60;44.30;;;;;;4995570;28;20798;-68
2022/05/08 09:03:25;;;;;;;0.90;0.67;;;31.50;44.10;;;;;;4995281;28;20172;-69
2022/05/08 09:05:58;;;;;;;1.53;0.80;;;31.50;44.20;;;;;;4995608;28;20169;-69
2022/05/08 09:08:27;;;;;;;1.37;0.83;;;31.50;44.30;;;;;;4995523;28;20439;-70
2022/05/08 09:10:54;;;;;;;1.30;0.80;;;32.20;44.50;;;;;;4995403;28;20479;-70
2022/05/08 09:13:22;;;;;;;1.20;0.87;;;33.10;44.30;;;;;;4995095;28;20420;-70
2022/05/08 09:15:49;;;;;;;1.00;0.80;;;34.20;43.90;;;;;;4995519;28;20503;-70
2022/05/08 09:18:15;;;;;;;0.90;0.70;;;35.90;43.10;;;;;;4995238;28;20438;-69
2022/05/08 09:20:47;;;;;;;1.97;0.90;;;37.60;42.10;;;;;;4995311;28;20459;-68
2022/05/08 09:23:14;;;;;;;1.00;0.87;;;39.30;41.40;;;;;;4994298;28;20825;-68
2022/05/08 09:26:00;;;;;;;1.20;1.10;;;40.90;39.70;;;;;;4993880;28;20420;-68
2022/05/08 09:28:41;;;;;;;0.90;0.80;;;42.40;38.50;;;;;;4993722;28;20459;-68
2022/05/08 09:31:16;;;;;;;1.00;0.90;;;43.70;37.30;;;;;;4995117;28;20400;-68
2022/05/08 09:33:45;;;;;;;1.20;1.10;;;44.70;36.20;;;;;;4993551;28;20407;-68
2022/05/08 09:36:17;;;;;;;1.23;1.13;;;45.80;35.10;;;;;;4994987;28;20400;-69
2022/05/08 09:38:48;;;;;;;1.20;1.10;;;46.60;34.00;;;;;;4994860;28;20937;-69
2022/05/08 09:41:23;;;;;;;1.87;1.40;;;47.50;33.20;;;;;;4994840;28;20411;-69
2022/05/08 09:43:51;;;;;;;1.50;1.40;;;48.30;32.00;;;;;;4994566;28;20375;-69
2022/05/08 09:46:17;;;;;;;1.20;1.10;;;48.90;30.90;;;;;;4994621;28;20408;-70
2022/05/08 09:48:43;;;;;;;1.00;0.90;;;49.50;30.40;;;;;;4994648;28;20403;-70
2022/05/08 09:51:11;;;;;;;1.47;1.37;;;50.10;29.90;;;;;;4993418;28;20415;-70
2022/05/08 09:53:39;;;;;;;1.40;1.30;;;50.60;29.50;;;;;;4994195;28;20709;-70
2022/05/08 09:56:09;;;;;;;1.53;1.43;;;51.00;29.00;;;;;;4994566;28;20933;-70
2022/05/08 09:58:36;;;;;;;1.40;1.20;;;51.50;28.70;;;;;;4994498;28;20383;-69
2022/05/08 10:01:02;;;;;;;1.50;1.30;;;51.80;28.30;;;;;;4994432;28;20418;-69
2022/05/08 10:03:30;;;;;;;1.50;1.10;;;52.30;27.90;;;;;;4994241;28;20375;-71
2022/05/08 10:05:57;;;;;;;1.30;1.20;;;52.60;27.50;;;;;;4994426;28;20378;-70
2022/05/08 10:08:24;;;;;;;1.30;1.20;;;52.80;27.10;;;;;;4994281;28;20499;-70
2022/05/08 10:16:45;;;;;;;1.50;1.40;;;53.80;26.30;;;;;;4994402;28;20400;-71
2022/05/08 10:19:19;;;;;;;1.87;1.40;;;54.40;26.10;;;;;;4994087;28;20429;-70
2022/05/08 10:22:02;;;;;;;1.60;1.50;;;55.10;25.90;;;;;;4993802;28;20396;-72
2022/05/08 10:24:47;;;;;;;1.40;1.30;;;55.70;25.60;;;;;;4994065;28;20400;-71
2022/05/08 10:27:17;;;;;;;1.40;1.30;;;56.30;25.30;;;;;;4994063;28;20410;-70
2022/05/08 10:30:02;;;;;;;1.80;1.70;;;56.70;25.00;;;;;;4993915;28;20435;-71
2022/05/08 10:32:31;;;;;;;1.73;1.63;;;57.00;24.70;;;;;;4993567;28;20418;-71
2022/05/08 10:35:19;;;;;;;1.50;1.40;;;57.30;24.30;;;;;;4992830;28;20408;-71
2022/05/08 10:37:51;;;;;;;1.73;1.63;;;57.70;24.00;;;;;;4993768;28;20483;-71
2022/05/08 10:40:22;;;;;;;2.00;1.90;;;57.90;23.80;;;;;;4993780;28;20414;-71
2022/05/08 10:43:00;;;;;;;1.80;1.70;;;58.30;23.60;;;;;;4993515;28;20382;-71
2022/05/08 10:45:34;;;;;;;2.00;1.90;;;58.50;23.20;;;;;;4993907;28;20399;-71
2022/05/08 10:48:03;;;;;;;1.90;1.80;;;58.50;22.80;;;;;;4993627;28;20431;-71
2022/05/08 10:50:29;;;;;;;1.83;1.73;;;58.60;22.60;;;;;;4993528;28;20494;-71
2022/05/08 10:52:54;;;;;;;2.17;2.07;;;58.60;22.50;;;;;;4993251;28;20408;-71
2022/05/08 10:55:27;;;;;;;2.13;2.03;;;58.60;22.30;;;;;;5069272;28;20518;-71
2022/05/08 10:57:54;;;;;;;2.00;1.90;;;58.60;22.30;;;;;;5069327;28;20515;-70
2022/05/08 11:00:26;;;;;;;2.10;2.00;;;58.70;22.30;;;;;;5067965;28;20436;-70
2022/05/08 11:02:57;;;;;;;2.10;2.00;;;58.60;22.10;;;;;;5068972;28;20479;-73
2022/05/08 11:05:37;;;;;;;2.10;2.00;;;58.50;22.00;;;;;;5069057;28;20444;-71
2022/05/08 11:08:02;;;;;;;1.93;1.83;;;58.40;21.80;;;;;;5069067;28;20387;-71
2022/05/08 11:10:28;;;;;;;2.03;1.93;;;58.30;21.80;;;;;;5069007;28;20492;-70
2022/05/08 11:13:05;;;;;;;2.00;1.90;;;58.10;21.50;;;;;;5068835;28;20178;-71
2022/05/08 11:15:43;;;;;;;1.80;1.70;;;58.00;21.40;;;;;;5067687;28;20455;-71
2022/05/08 11:18:19;;;;;;;2.00;1.90;;;57.80;21.40;;;;;;5068851;28;20409;-71
2022/05/08 11:20:53;;;;;;;1.80;1.70;;;57.70;21.40;;;;;;5068868;28;20432;-70
2022/05/08 11:23:20;;;;;;;1.80;1.70;;;57.50;21.30;;;;;;5068518;28;20421;-71
2022/05/08 11:25:50;;;;;;;2.10;2.00;;;57.30;21.20;;;;;;5068773;28;20397;-70
2022/05/08 11:28:17;;;;;;;1.73;1.63;;;57.40;21.20;;;;;;5067356;28;20445;-71
2022/05/08 11:30:47;;;;;;;2.00;1.90;;;57.40;21.20;;;;;;5068847;28;20403;-70
2022/05/08 11:36:06;;;;;;;1.80;1.70;;;57.20;21.00;;;;;;5068636;28;20417;-70
2022/05/08 11:38:50;;;;;;;2.07;1.97;;;57.30;21.10;;;;;;5068344;28;20518;-70
2022/05/08 11:41:27;;;;;;;2.20;1.70;;;57.40;21.10;;;;;;5068479;28;20907;-70
2022/05/08 11:43:58;;;;;;;1.80;1.70;;;57.40;20.90;;;;;;5068117;28;20405;-70
2022/05/08 11:46:38;;;;;;;2.07;1.97;;;57.30;20.80;;;;;;5068314;28;20415;-71
2022/05/08 11:49:20;;;;;;;1.80;1.70;;;57.40;20.90;;;;;;5068247;28;20921;-71
2022/05/08 11:51:51;;;;;;;2.00;1.90;;;57.50;20.90;;;;;;5067974;28;20453;-73
2022/05/08 11:54:30;;;;;;;1.97;1.87;;;57.50;20.80;;;;;;5067917;28;20448;-72
2022/05/08 11:57:16;;;;;;;1.80;1.70;;;57.50;20.80;;;;;;5068216;28;20393;-70
2022/05/08 11:59:44;;;;;;;1.80;1.70;;;57.50;20.70;;;;;;5067929;28;20469;-69
2022/05/08 12:02:10;;;;;;;1.80;1.70;;;57.60;20.70;;;;;;5067604;28;20436;-69
2022/05/08 12:04:36;;;;;;;2.90;1.77;;;58.00;20.60;;;;;;5067142;28;20436;-69
2022/05/08 12:07:09;;;;;;;1.97;1.87;;;58.50;20.50;;;;;;5054203;28;20436;-69
2022/05/08 12:09:51;;;;;;;2.10;2.00;;;58.80;20.40;;;;;;5054654;28;20205;-69
2022/05/08 12:12:28;;;;;;;2.00;1.90;;;59.00;20.20;;;;;;5054471;28;20409;-69
2022/05/08 12:14:55;;;;;;;2.10;2.00;;;59.10;20.10;;;;;;5053569;28;20810;-69
2022/05/08 12:17:22;;;;;;;2.47;2.37;;;59.20;20.20;;;;;;5054644;28;20429;-69
2022/05/08 12:19:58;;;;;;;2.00;1.90;;;59.30;20.20;;;;;;5054457;28;20404;-69
2022/05/08 12:22:28;;;;;;;2.70;2.60;;;59.10;20.20;;;;;;5054069;28;20732;-69
2022/05/08 12:24:55;;;;;;;2.63;2.53;;;59.00;20.10;;;;;;5054332;28;20918;-69
2022/05/08 12:27:21;;;;;;;2.00;1.90;;;58.80;20.10;;;;;;5054290;28;20817;-69
2022/05/08 12:29:47;;;;;;;2.30;2.20;;;58.60;20.10;;;;;;5054215;28;20462;-69
2022/05/08 12:32:14;;;;;;;1.90;1.80;;;58.40;20.10;;;;;;5053975;28;20402;-69
2022/05/08 12:34:41;;;;;;;2.07;1.97;;;58.30;20.10;;;;;;5054027;28;20198;-69
2022/05/08 12:37:11;;;;;;;2.10;2.00;;;58.10;20.10;;;;;;5053983;28;20404;-69
2022/05/08 12:39:37;;;;;;;1.80;1.70;;;58.00;20.20;;;;;;5053914;28;20428;-69
2022/05/08 12:42:04;;;;;;;1.90;1.80;;;57.80;20.20;;;;;;5052578;28;20409;-69
2022/05/08 12:44:29;;;;;;;1.80;1.70;;;57.60;20.00;;;;;;5053909;28;20508;-69
2022/05/08 12:46:56;;;;;;;1.73;1.63;;;57.40;20.00;;;;;;5054013;28;20839;-71
2022/05/08 12:49:21;;;;;;;1.70;1.60;;;57.20;19.90;;;;;;5053751;28;20186;-69
2022/05/08 12:51:47;;;;;;;1.70;1.60;;;57.00;20.00;;;;;;5053671;28;20875;-69
2022/05/08 12:54:12;;;;;;;1.80;1.70;;;56.70;19.90;;;;;;5053241;28;20688;-69
2022/05/08 12:56:38;;;;;;;1.77;1.67;;;56.50;19.90;;;;;;5053737;28;20170;-69
2022/05/08 13:01:51;;;;;;;2.13;1.53;;;56.10;20.00;;;;;;5053654;28;20603;-71
2022/05/08 13:04:17;;;;;;;1.40;1.30;;;55.90;20.00;;;;;;5053036;28;20405;-70
2022/05/08 13:06:42;;;;;;;1.63;1.53;;;55.60;20.00;;;;;;5053498;28;20413;-70
2022/05/08 13:09:08;;;;;;;1.67;1.57;;;55.50;20.10;;;;;;5053455;28;20205;-72
2022/05/08 13:11:38;;;;;;;1.40;1.30;;;55.20;20.00;;;;;;5053440;28;20513;-70
2022/05/08 13:14:04;;;;;;;1.80;1.70;;;54.90;20.00;;;;;;5053048;28;20244;-71
2022/05/08 13:16:30;;;;;;;1.87;1.77;;;54.60;19.90;;;;;;5052890;28;20908;-71
2022/05/08 13:18:56;;;;;;;1.63;1.53;;;54.30;19.90;;;;;;5052693;28;20423;-71
2022/05/08 13:21:21;;;;;;;2.23;1.47;;;54.00;19.90;;;;;;5053161;28;20536;-71
2022/05/08 13:23:47;;;;;;;1.60;1.50;;;53.80;20.00;;;;;;5052973;28;20180;-70
2022/05/08 13:26:14;;;;;;;1.60;1.50;;;53.40;20.00;;;;;;5053287;28;20163;-70